Time;durP1;ratioP1;P1;durP2;ratioP2;P2;SDS_P1;SDS_P2;PMS_P1;PMS_P2;Temp;Humidity;BMP_temperature;BMP_pressure;BME280_temperature;BME280_humidity;BME280_pressure;Samples;Min_cycle;Max_cycle;Signal;HPM_P1;HPM_P2
2022/05/09 00:02:14;;;;;;;22.27;7.40;;;15.30;61.00;;;;;;5048802;28;20274;-92
2022/05/09 00:04:45;;;;;;;16.53;6.03;;;15.30;61.30;;;;;;5050991;28;20250;-92
2022/05/09 00:07:13;;;;;;;15.93;5.37;;;15.30;61.40;;;;;;5049361;28;20273;-92
2022/05/09 00:09:43;;;;;;;15.97;6.20;;;15.30;61.50;;;;;;5050581;28;20668;-94
2022/05/09 00:12:12;;;;;;;20.27;7.10;;;15.30;61.80;;;;;;5049400;28;20260;-92
2022/05/09 00:14:40;;;;;;;14.37;5.70;;;15.30;61.50;;;;;;5050811;28;20274;-92
2022/05/09 00:17:07;;;;;;;15.80;6.03;;;15.30;61.40;;;;;;5050322;28;20208;-92
2022/05/09 00:19:34;;;;;;;15.13;5.27;;;15.30;61.60;;;;;;5050829;28;20208;-92
2022/05/09 00:22:03;;;;;;;16.00;5.87;;;15.20;61.40;;;;;;5051263;28;20223;-91
2022/05/09 00:24:30;;;;;;;10.87;5.30;;;15.20;61.50;;;;;;5046695;28;20299;-93
2022/05/09 00:27:02;;;;;;;16.93;6.73;;;15.20;61.50;;;;;;5051348;28;20188;-92
2022/05/09 00:29:33;;;;;;;12.97;6.07;;;15.20;61.80;;;;;;5049414;28;20208;-92
2022/05/09 00:32:00;;;;;;;15.53;6.03;;;15.20;62.00;;;;;;5050860;28;20211;-92
2022/05/09 00:34:27;;;;;;;18.03;6.53;;;15.20;61.60;;;;;;5048277;28;20211;-92
2022/05/09 00:36:55;;;;;;;13.87;5.67;;;15.10;61.50;;;;;;5036896;28;20224;-92
2022/05/09 00:39:25;;;;;;;16.63;6.53;;;15.10;61.60;;;;;;5050967;28;20196;-93
2022/05/09 00:41:53;;;;;;;23.03;9.00;;;15.00;62.10;;;;;;5048746;28;20465;-92
2022/05/09 00:44:22;;;;;;;14.03;7.23;;;15.00;62.10;;;;;;5051274;28;20216;-93
2022/05/09 00:46:51;;;;;;;16.33;5.87;;;15.00;62.10;;;;;;5049521;28;20673;-92
2022/05/09 00:49:24;;;;;;;20.53;6.70;;;14.90;61.70;;;;;;5048355;28;20221;-92
2022/05/09 00:51:57;;;;;;;18.77;6.43;;;14.90;62.00;;;;;;5049803;28;20204;-92
2022/05/09 00:54:28;;;;;;;14.67;6.17;;;14.80;61.80;;;;;;5049855;28;20243;-93
2022/05/09 00:57:02;;;;;;;11.43;5.97;;;14.80;61.80;;;;;;5047783;28;20780;-92
2022/05/09 00:59:33;;;;;;;14.07;6.10;;;14.80;61.90;;;;;;5048355;28;20196;-92
2022/05/09 01:02:00;;;;;;;15.87;5.83;;;14.70;61.80;;;;;;5049136;28;20236;-91
2022/05/09 01:04:30;;;;;;;17.13;6.20;;;14.70;61.70;;;;;;5046640;28;20258;-94
2022/05/09 01:06:59;;;;;;;15.13;6.20;;;14.60;61.90;;;;;;5059594;28;20226;-96
2022/05/09 01:09:28;;;;;;;12.60;5.53;;;14.60;61.90;;;;;;5051508;28;20258;-96
2022/05/09 01:11:55;;;;;;;15.60;6.27;;;14.60;62.10;;;;;;5051482;28;20208;-93
2022/05/09 01:14:25;;;;;;;13.07;5.53;;;14.50;62.00;;;;;;5050100;28;20293;-95
2022/05/09 01:16:54;;;;;;;12.30;5.47;;;14.50;62.20;;;;;;5035636;28;20287;-93
2022/05/09 01:19:28;;;;;;;14.13;6.00;;;14.40;62.20;;;;;;5050804;28;20275;-96
2022/05/09 01:22:01;;;;;;;16.67;7.30;;;14.40;62.60;;;;;;5049377;28;20250;-93
2022/05/09 01:24:30;;;;;;;15.43;7.03;;;14.40;62.90;;;;;;5050480;28;20208;-93
2022/05/09 01:26:58;;;;;;;14.57;6.90;;;14.30;62.50;;;;;;5049234;28;20208;-91
2022/05/09 01:29:38;;;;;;;22.27;8.53;;;14.30;62.80;;;;;;5045523;28;20207;-93
2022/05/09 01:32:07;;;;;;;19.33;7.17;;;14.30;63.30;;;;;;5036770;28;20631;-93
2022/05/09 01:34:41;;;;;;;14.53;7.50;;;14.30;63.10;;;;;;5049452;28;20261;-94
2022/05/09 01:37:11;;;;;;;21.33;7.83;;;14.30;63.10;;;;;;5047372;28;20196;-93
2022/05/09 01:39:39;;;;;;;16.13;7.87;;;14.20;63.20;;;;;;5048229;28;20234;-91
2022/05/09 01:42:09;;;;;;;15.87;6.87;;;14.20;63.10;;;;;;5052615;28;20227;-92
2022/05/09 01:44:37;;;;;;;17.80;8.13;;;14.20;63.30;;;;;;5050900;28;20208;-92
2022/05/09 01:49:50;;;;;;;14.43;7.07;;;14.20;63.50;;;;;;5053971;28;20199;-92
2022/05/09 01:52:21;;;;;;;18.93;7.33;;;14.20;63.40;;;;;;5052285;28;20202;-93
2022/05/09 01:54:49;;;;;;;15.70;7.03;;;14.20;63.60;;;;;;5050845;28;20724;-92
2022/05/09 01:57:16;;;;;;;16.10;7.33;;;14.20;63.40;;;;;;5053089;28;20532;-93
2022/05/09 01:59:45;;;;;;;18.20;7.97;;;14.20;63.30;;;;;;5047216;28;20252;-92
2022/05/09 02:02:15;;;;;;;21.53;9.00;;;14.20;63.60;;;;;;5050655;28;20254;-92
2022/05/09 02:04:43;;;;;;;17.53;8.17;;;14.20;63.80;;;;;;5036449;28;20253;-93
2022/05/09 02:07:14;;;;;;;17.60;8.27;;;14.20;63.70;;;;;;5051312;28;20236;-96
2022/05/09 02:09:45;;;;;;;18.90;7.27;;;14.10;64.30;;;;;;5053048;28;20203;-93
2022/05/09 02:12:14;;;;;;;16.87;8.33;;;14.10;63.60;;;;;;5054765;28;20211;-93
2022/05/09 02:14:43;;;;;;;18.30;7.17;;;14.10;63.60;;;;;;5051124;28;20226;-92
2022/05/09 02:17:11;;;;;;;26.43;8.97;;;14.10;63.40;;;;;;5051245;28;20211;-90
2022/05/09 02:19:42;;;;;;;16.17;7.00;;;14.10;63.40;;;;;;5053058;28;20211;-94
2022/05/09 02:22:11;;;;;;;18.83;8.13;;;14.00;63.10;;;;;;5051763;28;20293;-92
2022/05/09 02:24:40;;;;;;;18.00;7.60;;;14.00;63.20;;;;;;5052479;28;20261;-94
2022/05/09 02:27:13;;;;;;;18.73;7.80;;;14.00;63.10;;;;;;5052458;28;20210;-91
2022/05/09 02:29:42;;;;;;;17.83;8.03;;;13.90;63.40;;;;;;5053335;28;20226;-91
2022/05/09 02:32:11;;;;;;;14.73;7.67;;;13.90;63.20;;;;;;5052564;28;20214;-91
2022/05/09 02:34:39;;;;;;;16.73;7.00;;;13.90;63.20;;;;;;5050095;28;20211;-91
2022/05/09 02:37:07;;;;;;;18.13;8.70;;;13.80;63.10;;;;;;5049114;28;20328;-92
2022/05/09 02:39:34;;;;;;;19.47;8.03;;;13.80;63.50;;;;;;5045715;28;20218;-92
2022/05/09 02:42:01;;;;;;;15.23;7.83;;;13.80;63.50;;;;;;5052374;28;20225;-91
2022/05/09 02:44:30;;;;;;;17.17;7.73;;;13.80;63.50;;;;;;5048954;28;20252;-92
2022/05/09 02:46:58;;;;;;;23.87;8.30;;;13.80;63.70;;;;;;5052544;28;20204;-92
2022/05/09 02:49:25;;;;;;;17.20;7.70;;;13.70;63.70;;;;;;5051681;28;20680;-92
2022/05/09 02:51:52;;;;;;;15.20;7.13;;;13.70;63.70;;;;;;5051457;28;20221;-92
2022/05/09 02:54:19;;;;;;;20.53;8.37;;;13.70;63.90;;;;;;5051899;28;20208;-94
2022/05/09 02:56:46;;;;;;;21.27;8.43;;;13.60;63.90;;;;;;5051091;28;20256;-93
2022/05/09 02:59:19;;;;;;;17.03;7.30;;;13.60;63.80;;;;;;5052296;28;20219;-92
2022/05/09 03:01:48;;;;;;;16.20;6.73;;;13.60;64.00;;;;;;5052032;28;20240;-93
2022/05/09 03:07:01;;;;;;;15.37;7.17;;;13.50;63.80;;;;;;5037437;28;20286;-93
2022/05/09 03:09:30;;;;;;;22.93;8.97;;;13.50;63.60;;;;;;5046232;28;20208;-92
2022/05/09 03:11:58;;;;;;;15.20;6.73;;;13.50;63.90;;;;;;5048633;28;20221;-92
2022/05/09 03:14:26;;;;;;;22.60;8.40;;;13.40;64.10;;;;;;5044461;28;20309;-94
2022/05/09 03:16:55;;;;;;;17.93;8.00;;;13.40;64.00;;;;;;5050752;28;20198;-93
2022/05/09 03:19:22;;;;;;;16.37;6.93;;;13.30;64.10;;;;;;5050406;28;20216;-92
2022/05/09 03:21:50;;;;;;;16.37;7.13;;;13.30;64.20;;;;;;5050171;28;20243;-92
2022/05/09 03:24:17;;;;;;;17.77;7.70;;;13.30;64.20;;;;;;5051378;28;20238;-94
2022/05/09 03:26:44;;;;;;;21.13;8.60;;;13.20;64.10;;;;;;5050389;28;20203;-92
2022/05/09 03:29:12;;;;;;;12.30;6.67;;;13.20;64.10;;;;;;5051592;28;20643;-91
2022/05/09 03:31:41;;;;;;;15.17;7.20;;;13.20;64.30;;;;;;5049836;28;20213;-92
2022/05/09 03:34:10;;;;;;;18.13;8.27;;;13.10;64.30;;;;;;5050612;28;20645;-91
2022/05/09 03:36:37;;;;;;;13.40;7.37;;;13.10;64.50;;;;;;5041992;28;20233;-91
2022/05/09 03:39:04;;;;;;;18.23;7.60;;;13.10;64.40;;;;;;5037350;28;20289;-92
2022/05/09 03:41:33;;;;;;;18.07;7.43;;;13.00;64.30;;;;;;5050800;28;20258;-91
2022/05/09 03:44:00;;;;;;;19.20;8.17;;;13.00;64.50;;;;;;5050255;28;20208;-92
2022/05/09 03:46:28;;;;;;;15.73;7.93;;;13.00;64.50;;;;;;5050666;28;20206;-92
2022/05/09 03:48:57;;;;;;;19.97;7.00;;;13.00;64.80;;;;;;5036894;28;20264;-91
2022/05/09 03:51:26;;;;;;;14.30;6.37;;;13.00;64.80;;;;;;5050402;28;20304;-92
2022/05/09 03:53:53;;;;;;;17.87;7.17;;;12.90;64.80;;;;;;5050230;28;20647;-92
2022/05/09 03:56:20;;;;;;;17.03;7.30;;;12.90;64.60;;;;;;5050094;28;20213;-92
2022/05/09 03:58:47;;;;;;;14.40;6.13;;;12.90;65.50;;;;;;5050897;28;20560;-94
2022/05/09 04:01:14;;;;;;;14.53;6.53;;;12.80;64.60;;;;;;5039807;28;20218;-92
2022/05/09 04:03:46;;;;;;;13.93;7.53;;;12.80;64.70;;;;;;5050693;28;20229;-92
2022/05/09 04:06:13;;;;;;;17.97;7.30;;;12.80;64.80;;;;;;5050411;28;20210;-91
2022/05/09 04:08:41;;;;;;;14.13;6.83;;;12.70;65.00;;;;;;5051184;28;20471;-92
2022/05/09 04:11:09;;;;;;;12.37;6.63;;;12.70;65.40;;;;;;5048002;28;20212;-92
2022/05/09 04:13:37;;;;;;;14.93;7.57;;;12.70;64.90;;;;;;5050233;28;20515;-92
2022/05/09 04:18:46;;;;;;;14.53;6.87;;;12.70;65.10;;;;;;5021569;28;20214;-91
2022/05/09 04:21:15;;;;;;;12.97;6.63;;;12.70;65.10;;;;;;5040212;28;20213;-92
2022/05/09 04:23:45;;;;;;;14.03;6.70;;;12.70;65.30;;;;;;5040997;28;20260;-93
2022/05/09 04:26:13;;;;;;;13.57;6.77;;;12.60;65.30;;;;;;5047180;28;20292;-90
2022/05/09 04:28:41;;;;;;;21.13;8.13;;;12.60;65.20;;;;;;5048814;28;20251;-91
2022/05/09 04:31:07;;;;;;;16.37;7.27;;;12.60;64.90;;;;;;5048081;28;20214;-92
2022/05/09 04:33:34;;;;;;;16.00;7.30;;;12.60;65.10;;;;;;5048721;28;20211;-92
2022/05/09 04:36:03;;;;;;;15.20;6.90;;;12.60;66.10;;;;;;5049474;28;20305;-91
2022/05/09 04:38:42;;;;;;;15.37;7.23;;;12.60;65.30;;;;;;5049182;28;20711;-90
2022/05/09 04:41:13;;;;;;;11.47;6.23;;;12.60;65.30;;;;;;5050286;28;20215;-93
2022/05/09 04:43:40;;;;;;;15.07;7.00;;;12.60;65.40;;;;;;5050394;28;20236;-92
2022/05/09 04:46:09;;;;;;;12.77;7.20;;;12.50;65.20;;;;;;5049322;28;20196;-91
2022/05/09 04:48:42;;;;;;;13.17;6.73;;;12.50;65.60;;;;;;5050670;28;20246;-94
2022/05/09 04:51:17;;;;;;;16.03;7.03;;;12.50;65.60;;;;;;5048945;28;20204;-92
2022/05/09 04:53:46;;;;;;;22.93;7.47;;;12.50;66.20;;;;;;5050748;28;20225;-91
2022/05/09 04:56:14;;;;;;;12.20;6.80;;;12.50;66.00;;;;;;5045639;28;20204;-92
2022/05/09 04:58:42;;;;;;;15.20;6.87;;;12.50;66.30;;;;;;5050360;28;20211;-92
2022/05/09 05:01:10;;;;;;;18.80;7.87;;;12.50;66.50;;;;;;5043097;28;20220;-90
2022/05/09 05:03:38;;;;;;;18.17;8.17;;;12.40;67.00;;;;;;5042686;28;20713;-91
2022/05/09 05:06:12;;;;;;;22.53;8.63;;;12.50;67.50;;;;;;5043374;28;20208;-92
2022/05/09 05:08:44;;;;;;;24.83;9.07;;;12.50;67.90;;;;;;5041882;28;20230;-90
2022/05/09 05:11:16;;;;;;;15.53;6.73;;;12.40;68.30;;;;;;5048323;28;20255;-91
2022/05/09 05:13:43;;;;;;;20.10;8.73;;;12.50;69.00;;;;;;5044657;28;20235;-91
2022/05/09 05:16:10;;;;;;;16.83;6.70;;;12.50;68.30;;;;;;5047112;28;20219;-90
2022/05/09 05:18:44;;;;;;;19.30;8.30;;;12.50;68.50;;;;;;5057134;28;20288;-92
2022/05/09 05:21:15;;;;;;;18.93;8.13;;;12.60;69.10;;;;;;5048141;28;20205;-92
2022/05/09 05:23:43;;;;;;;11.97;6.23;;;12.60;69.00;;;;;;5050471;28;20283;-93
2022/05/09 05:26:17;;;;;;;19.40;8.40;;;12.60;69.00;;;;;;5050320;28;20209;-93
2022/05/09 05:28:46;;;;;;;20.50;9.03;;;12.70;70.30;;;;;;5051935;28;20242;-94
2022/05/09 05:31:16;;;;;;;10.53;6.70;;;12.70;70.00;;;;;;5053993;28;20237;-93
2022/05/09 05:34:09;;;;;;;19.40;8.80;;;12.80;70.40;;;;;;5049479;28;20738;-94
2022/05/09 05:36:37;;;;;;;18.60;7.83;;;12.80;71.20;;;;;;5046572;28;20599;-94
2022/05/09 05:39:22;;;;;;;20.27;7.63;;;12.90;70.40;;;;;;5046873;28;20604;-93
2022/05/09 05:41:50;;;;;;;19.57;8.97;;;12.90;70.40;;;;;;5045962;28;22159;-93
2022/05/09 05:44:18;;;;;;;22.63;9.17;;;13.00;71.00;;;;;;5045726;28;20244;-92
2022/05/09 05:46:45;;;;;;;19.90;8.43;;;13.00;70.80;;;;;;5049191;28;20506;-92
2022/05/09 05:49:13;;;;;;;21.10;8.50;;;13.00;71.00;;;;;;5051934;28;20312;-93
2022/05/09 05:51:45;;;;;;;17.73;7.30;;;13.10;71.30;;;;;;5052933;28;20253;-92
2022/05/09 05:54:18;;;;;;;19.80;8.00;;;13.20;71.30;;;;;;5050836;28;20204;-92
2022/05/09 05:56:45;;;;;;;26.47;10.13;;;13.20;71.50;;;;;;5038955;28;20290;-92
2022/05/09 05:59:14;;;;;;;21.37;8.77;;;13.30;70.90;;;;;;5048534;28;20283;-91
2022/05/09 06:01:41;;;;;;;16.87;7.70;;;13.40;71.10;;;;;;5047868;28;20570;-91
2022/05/09 06:04:11;;;;;;;35.17;10.53;;;13.40;70.80;;;;;;5049176;28;20255;-93
2022/05/09 06:06:38;;;;;;;21.00;9.07;;;13.50;71.20;;;;;;5054239;28;20226;-94
2022/05/09 06:09:06;;;;;;;23.50;9.53;;;13.60;70.80;;;;;;5052510;28;20642;-94
2022/05/09 06:11:33;;;;;;;9.83;6.27;;;13.60;70.80;;;;;;5053561;28;20265;-95
2022/05/09 06:14:03;;;;;;;29.30;10.00;;;13.70;70.30;;;;;;5045228;28;20225;-94
2022/05/09 06:16:32;;;;;;;17.00;8.50;;;13.70;70.20;;;;;;5051704;28;20273;-90
2022/05/09 06:19:00;;;;;;;16.73;7.67;;;13.80;70.20;;;;;;5047654;28;20204;-90
2022/05/09 06:21:27;;;;;;;17.17;8.00;;;13.90;70.00;;;;;;5048728;28;20243;-89
2022/05/09 06:23:58;;;;;;;16.50;7.53;;;14.00;69.70;;;;;;5047978;28;20303;-90
2022/05/09 06:26:25;;;;;;;20.70;8.23;;;14.00;69.70;;;;;;5046152;28;20204;-90
2022/05/09 06:28:52;;;;;;;20.67;7.80;;;14.10;69.60;;;;;;5045086;28;20224;-90
2022/05/09 06:31:19;;;;;;;22.23;8.83;;;14.20;69.60;;;;;;5048529;28;20684;-89
2022/05/09 06:33:48;;;;;;;18.07;8.73;;;14.30;69.70;;;;;;5048478;28;20574;-92
2022/05/09 06:36:15;;;;;;;17.80;7.57;;;14.30;69.30;;;;;;5048328;28;20224;-92
2022/05/09 06:38:43;;;;;;;34.47;10.13;;;14.40;69.20;;;;;;5047183;28;20377;-89
2022/05/09 06:41:10;;;;;;;17.10;8.03;;;14.40;69.50;;;;;;5048662;28;20259;-90
2022/05/09 06:43:37;;;;;;;14.60;8.03;;;14.50;69.50;;;;;;5044320;28;20235;-89
2022/05/09 06:46:05;;;;;;;17.07;8.20;;;14.60;69.70;;;;;;5047414;28;20801;-88
2022/05/09 06:48:31;;;;;;;14.43;8.17;;;14.70;69.40;;;;;;5049046;28;20708;-89
2022/05/09 06:51:01;;;;;;;23.73;10.30;;;14.70;69.10;;;;;;5046135;28;20215;-92
2022/05/09 06:53:28;;;;;;;13.03;7.33;;;14.80;69.40;;;;;;5048638;28;20308;-92
2022/05/09 06:55:56;;;;;;;15.73;8.00;;;14.90;69.10;;;;;;5047194;28;20226;-93
2022/05/09 06:58:25;;;;;;;16.57;7.60;;;15.00;69.30;;;;;;5052977;28;20274;-93
2022/05/09 07:00:53;;;;;;;19.83;8.63;;;15.00;69.00;;;;;;5051598;28;20810;-91
2022/05/09 07:03:21;;;;;;;19.80;8.00;;;15.10;69.20;;;;;;5052307;28;20266;-92
2022/05/09 07:05:51;;;;;;;22.93;9.03;;;15.20;69.10;;;;;;5051674;28;20230;-90
2022/05/09 07:08:22;;;;;;;14.77;7.27;;;15.30;69.10;;;;;;5050260;28;20649;-91
2022/05/09 07:10:49;;;;;;;20.03;8.97;;;15.30;68.50;;;;;;5051376;28;20733;-91
2022/05/09 07:13:18;;;;;;;13.27;7.67;;;15.40;68.40;;;;;;5052356;28;20263;-91
2022/05/09 07:15:48;;;;;;;19.03;8.53;;;15.50;68.50;;;;;;5055712;28;20196;-90
2022/05/09 07:18:15;;;;;;;17.80;9.07;;;15.50;68.50;;;;;;5048533;28;20204;-92
2022/05/09 07:20:41;;;;;;;19.93;8.27;;;15.60;68.60;;;;;;5050736;28;20232;-88
2022/05/09 07:23:11;;;;;;;23.73;9.93;;;15.70;68.70;;;;;;5048110;28;20237;-88
2022/05/09 07:25:40;;;;;;;25.50;10.70;;;15.70;68.90;;;;;;5049116;28;20287;-89
2022/05/09 07:28:09;;;;;;;18.40;9.07;;;15.80;68.80;;;;;;5045679;28;20232;-88
2022/05/09 07:30:36;;;;;;;14.87;7.90;;;15.90;68.50;;;;;;5049128;28;20200;-90
2022/05/09 07:33:03;;;;;;;15.53;7.93;;;16.00;68.30;;;;;;5047852;28;20284;-90
2022/05/09 07:35:32;;;;;;;18.57;8.87;;;16.10;68.40;;;;;;5046711;28;20216;-89
2022/05/09 07:38:00;;;;;;;24.40;9.53;;;16.20;68.30;;;;;;5049213;28;20199;-90
2022/05/09 07:40:27;;;;;;;31.30;11.40;;;16.30;68.20;;;;;;5046333;28;21942;-91
2022/05/09 07:42:58;;;;;;;21.57;8.67;;;16.40;68.00;;;;;;5049285;28;20773;-88
2022/05/09 07:45:26;;;;;;;14.77;7.93;;;16.50;68.00;;;;;;5046887;28;20196;-89
2022/05/09 07:47:53;;;;;;;14.67;7.13;;;16.60;67.80;;;;;;5048814;28;20233;-91
2022/05/09 07:50:20;;;;;;;23.70;9.97;;;16.70;67.70;;;;;;5047539;28;20206;-90
2022/05/09 07:52:48;;;;;;;18.77;9.47;;;16.80;67.20;;;;;;5049983;28;20286;-89
2022/05/09 07:55:18;;;;;;;14.97;7.93;;;16.90;67.20;;;;;;5048417;28;20393;-91
2022/05/09 07:57:46;;;;;;;18.63;7.97;;;17.10;67.10;;;;;;5051825;28;20252;-89
2022/05/09 08:00:15;;;;;;;13.00;7.83;;;17.20;67.10;;;;;;5050075;28;20583;-90
2022/05/09 08:02:43;;;;;;;14.43;8.53;;;17.30;66.80;;;;;;5046316;28;20222;-92
2022/05/09 08:05:11;;;;;;;17.10;8.50;;;17.40;67.40;;;;;;5050800;28;20234;-91
2022/05/09 08:07:40;;;;;;;16.17;8.20;;;17.50;66.20;;;;;;5047744;28;20261;-92
2022/05/09 08:10:09;;;;;;;20.40;9.33;;;17.60;65.80;;;;;;5049753;28;20202;-90
2022/05/09 08:12:37;;;;;;;13.07;8.40;;;17.70;65.90;;;;;;5053281;28;20231;-91
2022/05/09 08:15:06;;;;;;;15.13;8.97;;;17.80;65.80;;;;;;5053198;28;20211;-90
2022/05/09 08:17:34;;;;;;;15.90;8.63;;;17.90;65.20;;;;;;5056976;28;20189;-90
2022/05/09 08:20:03;;;;;;;15.97;9.43;;;18.00;65.00;;;;;;5052142;28;20283;-92
2022/05/09 08:22:31;;;;;;;20.40;9.27;;;18.20;65.50;;;;;;5050684;28;20819;-89
2022/05/09 08:25:07;;;;;;;25.97;11.53;;;18.20;65.10;;;;;;5045387;28;20699;-90
2022/05/09 08:27:36;;;;;;;13.57;7.40;;;18.40;64.90;;;;;;5048811;28;20238;-89
2022/05/09 08:30:04;;;;;;;23.30;10.50;;;18.50;64.40;;;;;;5048536;28;20291;-90
2022/05/09 08:32:36;;;;;;;19.27;8.10;;;18.60;64.30;;;;;;5050007;28;20218;-91
2022/05/09 08:35:04;;;;;;;255.17;59.40;;;18.70;63.50;;;;;;5054770;28;20200;-91
2022/05/09 08:37:33;;;;;;;43.47;14.00;;;18.80;63.40;;;;;;5050964;28;20207;-92
2022/05/09 08:40:07;;;;;;;16.73;8.47;;;18.90;63.20;;;;;;5051512;28;20672;-93
2022/05/09 08:42:41;;;;;;;26.30;8.50;;;19.10;63.70;;;;;;5048010;28;20238;-91
2022/05/09 08:45:31;;;;;;;136.53;32.07;;;19.30;63.00;;;;;;5050428;28;20660;-93
2022/05/09 08:48:32;;;;;;;62.80;16.40;;;19.40;62.50;;;;;;5049667;28;20239;-93
2022/05/09 08:51:09;;;;;;;25.50;9.63;;;19.60;62.30;;;;;;5051681;28;20562;-90
2022/05/09 08:53:42;;;;;;;19.93;8.10;;;19.90;61.40;;;;;;5054329;28;20355;-91
2022/05/09 08:56:21;;;;;;;18.17;8.47;;;20.10;60.70;;;;;;5049863;28;20215;-91
2022/05/09 08:59:02;;;;;;;15.63;6.97;;;20.30;61.10;;;;;;5056686;28;20269;-94
2022/05/09 09:01:37;;;;;;;19.33;8.27;;;20.70;59.70;;;;;;5053115;28;20218;-91
2022/05/09 09:04:08;;;;;;;203.57;35.33;;;20.90;60.70;;;;;;5055422;28;20262;-90
2022/05/09 09:07:06;;;;;;;25.70;8.13;;;21.20;59.50;;;;;;5054930;28;20299;-92
2022/05/09 09:10:02;;;;;;;11.63;6.00;;;21.50;58.30;;;;;;5047709;28;20538;-89
2022/05/09 09:12:44;;;;;;;9.20;4.70;;;21.80;57.10;;;;;;5046040;28;20230;-92
2022/05/09 09:15:21;;;;;;;25.27;7.53;;;22.20;57.40;;;;;;5053805;28;20234;-90
2022/05/09 09:18:04;;;;;;;18.40;5.77;;;22.40;57.40;;;;;;5050985;28;20249;-90
2022/05/09 09:20:45;;;;;;;17.47;6.00;;;22.70;56.10;;;;;;5051745;28;20204;-90
2022/05/09 09:23:24;;;;;;;26.07;7.97;;;23.00;55.70;;;;;;5033255;28;20295;-89
2022/05/09 09:26:03;;;;;;;55.73;11.07;;;23.30;55.30;;;;;;5033507;28;20204;-90
2022/05/09 09:28:46;;;;;;;11.90;5.63;;;23.60;55.50;;;;;;5051409;28;20295;-91
2022/05/09 09:31:15;;;;;;;12.40;4.97;;;23.80;54.00;;;;;;5045335;28;20847;-95
2022/05/09 09:33:50;;;;;;;666.67;88.47;;;24.00;54.90;;;;;;5043184;28;20220;-91
2022/05/09 09:36:25;;;;;;;24.80;8.93;;;24.20;53.90;;;;;;5051953;28;20211;-91
2022/05/09 09:38:58;;;;;;;17.60;6.00;;;24.40;52.50;;;;;;5051292;28;20192;-91
2022/05/09 09:41:30;;;;;;;15.60;5.07;;;24.70;52.90;;;;;;5052251;28;20751;-91
2022/05/09 09:44:12;;;;;;;8.83;4.03;;;24.80;52.90;;;;;;5051996;28;20289;-89
2022/05/09 09:47:11;;;;;;;13.03;4.97;;;25.00;52.50;;;;;;5040992;28;20236;-92
2022/05/09 09:49:40;;;;;;;18.47;6.63;;;25.20;50.80;;;;;;5054465;28;20279;-95
2022/05/09 09:52:24;;;;;;;15.63;5.60;;;25.40;52.10;;;;;;5053369;28;20192;-90
2022/05/09 09:54:58;;;;;;;9.87;4.83;;;25.60;50.00;;;;;;5053501;28;20192;-89
2022/05/09 09:57:29;;;;;;;24.87;7.77;;;25.70;50.90;;;;;;5047021;28;21438;-89
2022/05/09 09:59:57;;;;;;;47.73;8.33;;;25.80;51.20;;;;;;5051016;28;20577;-90
2022/05/09 10:02:27;;;;;;;10.63;5.20;;;25.90;50.70;;;;;;5048062;28;20212;-90
2022/05/09 10:04:58;;;;;;;36.87;8.90;;;26.00;50.50;;;;;;5049515;28;20656;-90
2022/05/09 10:07:38;;;;;;;13.77;6.13;;;26.10;50.10;;;;;;5048380;28;20203;-89
2022/05/09 10:10:11;;;;;;;14.03;5.17;;;26.20;48.50;;;;;;5050742;28;20218;-91
2022/05/09 10:12:40;;;;;;;8.33;4.53;;;26.30;48.60;;;;;;5050136;28;20238;-90
2022/05/09 10:15:34;;;;;;;8.97;4.13;;;26.40;49.20;;;;;;5052915;28;20215;-93
2022/05/09 10:18:17;;;;;;;9.40;4.43;;;26.50;47.30;;;;;;5052398;28;20216;-93
2022/05/09 10:20:48;;;;;;;7.10;3.33;;;26.70;46.90;;;;;;5046600;28;20657;-90
2022/05/09 10:26:21;;;;;;;11.10;5.00;;;26.80;45.70;;;;;;5032840;28;20684;-90
2022/05/09 10:28:50;;;;;;;8.87;4.10;;;26.90;45.50;;;;;;5050271;28;20211;-89
2022/05/09 10:31:23;;;;;;;8.60;4.13;;;27.00;47.20;;;;;;5036671;28;20625;-89
2022/05/09 10:34:01;;;;;;;6.87;4.30;;;27.10;46.30;;;;;;5044854;28;20200;-89
2022/05/09 10:36:32;;;;;;;7.07;3.77;;;27.20;46.70;;;;;;5049573;28;20250;-93
2022/05/09 10:39:08;;;;;;;8.30;4.70;;;27.30;45.50;;;;;;5051867;28;20305;-91
2022/05/09 10:41:43;;;;;;;8.70;4.37;;;27.40;44.10;;;;;;5050433;28;20839;-91
2022/05/09 10:44:15;;;;;;;11.77;4.70;;;27.50;44.40;;;;;;5049719;28;20251;-92
2022/05/09 10:46:51;;;;;;;11.97;5.03;;;27.50;46.10;;;;;;5040617;28;20644;-92
2022/05/09 10:49:29;;;;;;;14.20;4.70;;;27.60;44.50;;;;;;5046524;28;20674;-92
2022/05/09 10:52:07;;;;;;;8.97;3.73;;;27.70;42.80;;;;;;5052625;28;20203;-90
2022/05/09 10:54:46;;;;;;;8.57;3.87;;;27.70;43.60;;;;;;5048525;28;20201;-89
2022/05/09 10:57:24;;;;;;;6.70;2.80;;;27.80;43.50;;;;;;5040707;28;20224;-91
2022/05/09 11:00:01;;;;;;;6.70;3.60;;;27.80;44.70;;;;;;5057086;28;20593;-93
2022/05/09 11:02:35;;;;;;;5.27;3.37;;;27.90;44.00;;;;;;5061522;28;20615;-92
2022/05/09 11:05:05;;;;;;;8.63;3.97;;;28.00;43.30;;;;;;5059880;28;20639;-95
2022/05/09 11:07:40;;;;;;;9.50;4.73;;;28.10;42.50;;;;;;5047234;28;20196;-90
2022/05/09 11:10:33;;;;;;;7.83;4.53;;;28.10;43.30;;;;;;5042963;28;20211;-89
2022/05/09 11:13:14;;;;;;;7.17;3.90;;;28.20;42.40;;;;;;5045456;28;20227;-89
2022/05/09 11:15:53;;;;;;;9.33;4.03;;;28.20;42.50;;;;;;5049280;28;20203;-91
2022/05/09 11:18:49;;;;;;;11.17;4.80;;;28.30;42.30;;;;;;5051951;28;21211;-91
2022/05/09 11:21:26;;;;;;;11.07;4.77;;;28.30;42.20;;;;;;5054767;28;20269;-92
2022/05/09 11:24:05;;;;;;;4.13;3.60;;;28.40;42.40;;;;;;5033342;28;20208;-91
2022/05/09 11:26:43;;;;;;;9.13;3.97;;;28.40;42.30;;;;;;5058540;28;20203;-92
2022/05/09 11:29:39;;;;;;;11.90;5.07;;;28.50;41.70;;;;;;5056843;28;20226;-91
2022/05/09 11:32:29;;;;;;;7.10;3.90;;;28.50;41.60;;;;;;5035678;28;20212;-93
2022/05/09 11:35:23;;;;;;;6.87;3.93;;;28.60;41.70;;;;;;5046684;28;20710;-90
2022/05/09 11:38:03;;;;;;;7.40;4.10;;;28.60;41.60;;;;;;5055616;28;20228;-92
2022/05/09 11:40:38;;;;;;;14.27;5.67;;;28.70;42.20;;;;;;5052491;28;20212;-91
2022/05/09 11:43:33;;;;;;;15.20;4.37;;;28.80;42.30;;;;;;5049489;28;20291;-93
2022/05/09 11:46:13;;;;;;;8.20;3.97;;;28.90;41.40;;;;;;5048240;28;20227;-90
2022/05/09 11:48:56;;;;;;;9.67;4.03;;;29.00;41.50;;;;;;5051554;28;20208;-89
2022/05/09 11:51:37;;;;;;;10.17;5.40;;;29.00;40.90;;;;;;5050493;28;20257;-91
2022/05/09 11:54:08;;;;;;;10.37;5.23;;;29.10;41.00;;;;;;5051648;28;20701;-88
2022/05/09 11:56:45;;;;;;;11.80;4.70;;;29.20;41.50;;;;;;5052855;28;20284;-89
2022/05/09 11:59:20;;;;;;;119.10;18.97;;;29.30;40.90;;;;;;5046802;28;20517;-91
2022/05/09 12:02:08;;;;;;;13.77;4.90;;;29.30;40.80;;;;;;5043438;28;20212;-90
2022/05/09 12:04:40;;;;;;;9.60;4.77;;;29.40;40.30;;;;;;5051338;28;20235;-90
2022/05/09 12:07:30;;;;;;;16.93;6.10;;;29.50;41.00;;;;;;5048506;28;20207;-90
2022/05/09 12:10:03;;;;;;;9.10;4.40;;;29.60;40.50;;;;;;5047210;28;20204;-90
2022/05/09 12:12:49;;;;;;;18.50;7.10;;;29.70;40.10;;;;;;5042615;28;20226;-90
2022/05/09 12:15:48;;;;;;;55.03;10.60;;;29.80;39.10;;;;;;5044723;28;20200;-89
2022/05/09 12:18:53;;;;;;;13.93;6.40;;;30.00;39.40;;;;;;5044686;28;20212;-88
2022/05/09 12:21:37;;;;;;;15.03;6.47;;;30.10;38.60;;;;;;5044310;28;20192;-91
2022/05/09 12:24:27;;;;;;;10.13;5.40;;;30.20;38.70;;;;;;5041937;28;20208;-89
2022/05/09 12:26:57;;;;;;;7.97;3.77;;;30.30;39.50;;;;;;5032888;28;20205;-89
2022/05/09 12:29:51;;;;;;;10.10;4.70;;;30.30;39.30;;;;;;5051692;28;22034;-89
2022/05/09 12:32:22;;;;;;;9.25;5.05;;;30.40;39.00;;;;;;5036778;28;20197;-90
2022/05/09 12:34:49;;;;;;;13.57;6.47;;;30.50;39.20;;;;;;5036431;28;20915;-90
2022/05/09 12:37:24;;;;;;;11.65;5.38;;;30.50;38.80;;;;;;5045115;28;20680;-89
2022/05/09 12:39:54;;;;;;;13.77;6.63;;;30.70;38.60;;;;;;5043346;28;20925;-91
2022/05/09 12:42:47;;;;;;;16.42;6.65;;;30.70;38.70;;;;;;5042661;28;20879;-91
2022/05/09 12:45:18;;;;;;;8.05;4.13;;;30.90;37.80;;;;;;5049218;28;20231;-91
2022/05/09 12:47:49;;;;;;;9.45;5.32;;;31.00;38.50;;;;;;5047785;28;20652;-90
2022/05/09 12:50:24;;;;;;;15.88;5.72;;;31.10;37.80;;;;;;5043001;28;20211;-88
2022/05/09 12:52:54;;;;;;;16.58;7.03;;;31.10;38.00;;;;;;5040766;28;20677;-89
2022/05/09 12:58:22;;;;;;;11.02;5.43;;;31.30;37.30;;;;;;5045487;28;20207;-91
2022/05/09 13:00:55;;;;;;;19.73;6.55;;;31.40;37.00;;;;;;5039525;28;20227;-88
2022/05/09 13:03:23;;;;;;;11.63;6.25;;;31.50;38.00;;;;;;5042682;28;20204;-89
2022/05/09 13:05:52;;;;;;;7.80;4.53;;;31.50;37.20;;;;;;5045284;28;20338;-90
2022/05/09 13:08:20;;;;;;;8.85;4.43;;;31.60;36.50;;;;;;5046932;28;20234;-88
2022/05/09 13:10:51;;;;;;;11.20;5.50;;;31.60;36.50;;;;;;5043887;28;20322;-89
2022/05/09 13:13:27;;;;;;;9.32;5.18;;;31.60;36.10;;;;;;5039430;28;20818;-89
2022/05/09 13:15:57;;;;;;;13.23;5.95;;;31.60;35.80;;;;;;5038030;28;20287;-92
2022/05/09 13:18:28;;;;;;;11.77;6.32;;;31.60;36.10;;;;;;5040200;28;20299;-89